sensor_id;sensor_type;location;lat;lon;timestamp;P1;durP1;ratioP1;P2;durP2;ratioP2
72517;SDS011;60540;51.178;6.738;2022-11-15T00:01:33;9.10;;;5.07;;
72517;SDS011;60540;51.178;6.738;2022-11-15T00:03:59;9.23;;;5.15;;
72517;SDS011;60540;51.178;6.738;2022-11-15T00:06:25;8.65;;;4.75;;
72517;SDS011;60540;51.178;6.738;2022-11-15T00:08:51;9.10;;;4.93;;
72517;SDS011;60540;51.178;6.738;2022-11-15T00:11:16;9.32;;;4.95;;
72517;SDS011;60540;51.178;6.738;2022-11-15T00:13:42;9.73;;;4.75;;
72517;SDS011;60540;51.178;6.738;2022-11-15T00:16:08;11.25;;;5.40;;
72517;SDS011;60540;51.178;6.738;2022-11-15T00:18:34;10.45;;;5.07;;
72517;SDS011;60540;51.178;6.738;2022-11-15T00:21:07;10.95;;;5.30;;
72517;SDS011;60540;51.178;6.738;2022-11-15T00:23:34;8.82;;;4.93;;
72517;SDS011;60540;51.178;6.738;2022-11-15T00:26:00;8.85;;;4.63;;
72517;SDS011;60540;51.178;6.738;2022-11-15T00:28:25;9.07;;;4.80;;
72517;SDS011;60540;51.178;6.738;2022-11-15T00:30:51;9.07;;;5.00;;
72517;SDS011;60540;51.178;6.738;2022-11-15T00:33:17;11.73;;;5.00;;
72517;SDS011;60540;51.178;6.738;2022-11-15T00:35:43;10.93;;;5.28;;
72517;SDS011;60540;51.178;6.738;2022-11-15T00:38:08;9.90;;;5.15;;
72517;SDS011;60540;51.178;6.738;2022-11-15T00:40:34;10.80;;;4.90;;
72517;SDS011;60540;51.178;6.738;2022-11-15T00:43:00;8.60;;;5.00;;
72517;SDS011;60540;51.178;6.738;2022-11-15T00:45:25;8.07;;;4.07;;
72517;SDS011;60540;51.178;6.738;2022-11-15T00:47:51;7.95;;;4.55;;
72517;SDS011;60540;51.178;6.738;2022-11-15T00:50:17;9.75;;;4.65;;
72517;SDS011;60540;51.178;6.738;2022-11-15T00:52:43;7.97;;;4.88;;
72517;SDS011;60540;51.178;6.738;2022-11-15T00:55:13;9.45;;;4.65;;
72517;SDS011;60540;51.178;6.738;2022-11-15T00:57:40;7.55;;;4.15;;
72517;SDS011;60540;51.178;6.738;2022-11-15T01:00:06;8.50;;;4.53;;
72517;SDS011;60540;51.178;6.738;2022-11-15T01:02:32;8.65;;;4.80;;
72517;SDS011;60540;51.178;6.738;2022-11-15T01:04:57;8.65;;;4.70;;
72517;SDS011;60540;51.178;6.738;2022-11-15T01:07:23;9.05;;;4.18;;
72517;SDS011;60540;51.178;6.738;2022-11-15T01:09:49;8.52;;;4.38;;
72517;SDS011;60540;51.178;6.738;2022-11-15T01:12:15;9.80;;;4.95;;
72517;SDS011;60540;51.178;6.738;2022-11-15T01:14:40;7.32;;;4.18;;
72517;SDS011;60540;51.178;6.738;2022-11-15T01:17:06;8.13;;;4.80;;
72517;SDS011;60540;51.178;6.738;2022-11-15T01:19:31;9.63;;;4.75;;
72517;SDS011;60540;51.178;6.738;2022-11-15T01:21:57;8.35;;;4.80;;
72517;SDS011;60540;51.178;6.738;2022-11-15T01:24:22;7.60;;;4.43;;
72517;SDS011;60540;51.178;6.738;2022-11-15T01:26:48;9.65;;;4.80;;
72517;SDS011;60540;51.178;6.738;2022-11-15T01:29:14;9.45;;;4.25;;
72517;SDS011;60540;51.178;6.738;2022-11-15T01:31:39;8.10;;;5.05;;
72517;SDS011;60540;51.178;6.738;2022-11-15T01:34:05;10.20;;;4.57;;
72517;SDS011;60540;51.178;6.738;2022-11-15T01:36:31;7.70;;;4.68;;
72517;SDS011;60540;51.178;6.738;2022-11-15T01:38:57;8.35;;;4.72;;
72517;SDS011;60540;51.178;6.738;2022-11-15T01:41:25;7.38;;;4.13;;
72517;SDS011;60540;51.178;6.738;2022-11-15T01:43:53;7.65;;;4.20;;
72517;SDS011;60540;51.178;6.738;2022-11-15T01:48:51;9.07;;;4.40;;
72517;SDS011;60540;51.178;6.738;2022-11-15T01:51:19;9.23;;;4.72;;
72517;SDS011;60540;51.178;6.738;2022-11-15T01:56:13;7.13;;;4.38;;
72517;SDS011;60540;51.178;6.738;2022-11-15T01:58:42;7.28;;;4.35;;
72517;SDS011;60540;51.178;6.738;2022-11-15T02:01:08;9.40;;;4.95;;
72517;SDS011;60540;51.178;6.738;2022-11-15T02:03:36;9.10;;;4.72;;
72517;SDS011;60540;51.178;6.738;2022-11-15T02:08:32;7.22;;;3.92;;
72517;SDS011;60540;51.178;6.738;2022-11-15T02:10:58;6.78;;;4.70;;
72517;SDS011;60540;51.178;6.738;2022-11-15T02:13:23;6.53;;;3.90;;
72517;SDS011;60540;51.178;6.738;2022-11-15T02:15:55;8.57;;;5.47;;
72517;SDS011;60540;51.178;6.738;2022-11-15T02:18:26;9.02;;;4.28;;
72517;SDS011;60540;51.178;6.738;2022-11-15T02:28:53;7.40;;;4.82;;
72517;SDS011;60540;51.178;6.738;2022-11-15T02:31:49;8.35;;;5.07;;
72517;SDS011;60540;51.178;6.738;2022-11-15T02:34:28;6.88;;;4.22;;
72517;SDS011;60540;51.178;6.738;2022-11-15T02:37:00;7.75;;;4.40;;
72517;SDS011;60540;51.178;6.738;2022-11-15T02:42:26;11.35;;;5.32;;
72517;SDS011;60540;51.178;6.738;2022-11-15T02:45:17;11.48;;;5.82;;
72517;SDS011;60540;51.178;6.738;2022-11-15T02:47:45;9.73;;;5.13;;
72517;SDS011;60540;51.178;6.738;2022-11-15T02:50:12;9.10;;;5.40;;
72517;SDS011;60540;51.178;6.738;2022-11-15T02:52:40;9.48;;;4.95;;
72517;SDS011;60540;51.178;6.738;2022-11-15T02:55:24;10.50;;;5.18;;
72517;SDS011;60540;51.178;6.738;2022-11-15T02:58:45;9.63;;;5.30;;
72517;SDS011;60540;51.178;6.738;2022-11-15T03:00:48;8.75;;;4.72;;
72517;SDS011;60540;51.178;6.738;2022-11-15T03:05:56;8.77;;;4.55;;
72517;SDS011;60540;51.178;6.738;2022-11-15T03:08:32;9.52;;;4.72;;
72517;SDS011;60540;51.178;6.738;2022-11-15T03:11:10;9.15;;;4.90;;
72517;SDS011;60540;51.178;6.738;2022-11-15T03:13:46;8.45;;;4.45;;
72517;SDS011;60540;51.178;6.738;2022-11-15T03:16:23;9.00;;;4.53;;
72517;SDS011;60540;51.178;6.738;2022-11-15T03:18:54;8.15;;;4.55;;
72517;SDS011;60540;51.178;6.738;2022-11-15T03:21:24;8.52;;;4.65;;
72517;SDS011;60540;51.178;6.738;2022-11-15T03:23:50;8.65;;;4.55;;
72517;SDS011;60540;51.178;6.738;2022-11-15T03:26:16;8.27;;;4.50;;
72517;SDS011;60540;51.178;6.738;2022-11-15T03:28:47;8.15;;;4.28;;
72517;SDS011;60540;51.178;6.738;2022-11-15T03:31:15;8.45;;;5.43;;
72517;SDS011;60540;51.178;6.738;2022-11-15T03:34:01;8.07;;;4.65;;
72517;SDS011;60540;51.178;6.738;2022-11-15T03:36:29;6.85;;;4.22;;
72517;SDS011;60540;51.178;6.738;2022-11-15T03:38:56;8.90;;;4.85;;
72517;SDS011;60540;51.178;6.738;2022-11-15T03:41:28;8.40;;;4.70;;
72517;SDS011;60540;51.178;6.738;2022-11-15T03:49:50;9.43;;;5.07;;
72517;SDS011;60540;51.178;6.738;2022-11-15T03:52:18;11.05;;;5.75;;
72517;SDS011;60540;51.178;6.738;2022-11-15T03:57:14;9.77;;;5.55;;
72517;SDS011;60540;51.178;6.738;2022-11-15T03:59:40;9.18;;;5.63;;
72517;SDS011;60540;51.178;6.738;2022-11-15T04:02:05;10.02;;;5.30;;
72517;SDS011;60540;51.178;6.738;2022-11-15T04:04:31;10.55;;;5.65;;
72517;SDS011;60540;51.178;6.738;2022-11-15T04:06:56;10.52;;;5.60;;
72517;SDS011;60540;51.178;6.738;2022-11-15T04:09:22;10.07;;;5.68;;
72517;SDS011;60540;51.178;6.738;2022-11-15T04:11:48;9.65;;;4.70;;
72517;SDS011;60540;51.178;6.738;2022-11-15T04:14:13;9.02;;;4.88;;
72517;SDS011;60540;51.178;6.738;2022-11-15T04:16:39;9.70;;;5.18;;
72517;SDS011;60540;51.178;6.738;2022-11-15T04:19:04;10.35;;;5.22;;
72517;SDS011;60540;51.178;6.738;2022-11-15T04:21:49;8.73;;;5.43;;
72517;SDS011;60540;51.178;6.738;2022-11-15T04:24:33;13.35;;;6.38;;
72517;SDS011;60540;51.178;6.738;2022-11-15T04:26:59;9.95;;;5.40;;
72517;SDS011;60540;51.178;6.738;2022-11-15T04:29:25;11.18;;;6.15;;
72517;SDS011;60540;51.178;6.738;2022-11-15T04:32:00;9.75;;;5.32;;
72517;SDS011;60540;51.178;6.738;2022-11-15T04:34:29;9.70;;;4.78;;
72517;SDS011;60540;51.178;6.738;2022-11-15T04:36:55;9.02;;;5.20;;
72517;SDS011;60540;51.178;6.738;2022-11-15T04:39:39;9.43;;;4.78;;
72517;SDS011;60540;51.178;6.738;2022-11-15T04:42:05;9.32;;;5.07;;
72517;SDS011;60540;51.178;6.738;2022-11-15T04:44:31;10.35;;;4.88;;
72517;SDS011;60540;51.178;6.738;2022-11-15T04:46:57;9.85;;;4.90;;
72517;SDS011;60540;51.178;6.738;2022-11-15T04:49:22;8.10;;;4.75;;
72517;SDS011;60540;51.178;6.738;2022-11-15T04:51:48;10.10;;;6.35;;
72517;SDS011;60540;51.178;6.738;2022-11-15T04:54:13;10.73;;;5.05;;
72517;SDS011;60540;51.178;6.738;2022-11-15T04:56:39;8.82;;;4.55;;
72517;SDS011;60540;51.178;6.738;2022-11-15T04:59:05;9.90;;;4.80;;
72517;SDS011;60540;51.178;6.738;2022-11-15T05:01:30;9.65;;;5.78;;
72517;SDS011;60540;51.178;6.738;2022-11-15T05:03:56;9.13;;;5.22;;
72517;SDS011;60540;51.178;6.738;2022-11-15T05:06:40;10.50;;;5.05;;
72517;SDS011;60540;51.178;6.738;2022-11-15T05:09:05;8.10;;;4.43;;
72517;SDS011;60540;51.178;6.738;2022-11-15T05:11:31;8.80;;;4.80;;
72517;SDS011;60540;51.178;6.738;2022-11-15T05:13:57;7.95;;;4.00;;
72517;SDS011;60540;51.178;6.738;2022-11-15T05:16:22;8.20;;;4.45;;
72517;SDS011;60540;51.178;6.738;2022-11-15T05:18:51;7.35;;;4.00;;
72517;SDS011;60540;51.178;6.738;2022-11-15T05:21:19;6.63;;;4.55;;
72517;SDS011;60540;51.178;6.738;2022-11-15T05:23:45;7.95;;;3.92;;
72517;SDS011;60540;51.178;6.738;2022-11-15T05:26:11;7.75;;;4.28;;
72517;SDS011;60540;51.178;6.738;2022-11-15T05:28:37;7.47;;;3.80;;
72517;SDS011;60540;51.178;6.738;2022-11-15T05:31:03;6.55;;;3.50;;
72517;SDS011;60540;51.178;6.738;2022-11-15T05:33:31;6.53;;;4.00;;
72517;SDS011;60540;51.178;6.738;2022-11-15T05:36:00;6.10;;;3.83;;
72517;SDS011;60540;51.178;6.738;2022-11-15T05:38:29;6.50;;;4.00;;
72517;SDS011;60540;51.178;6.738;2022-11-15T05:40:55;7.40;;;4.03;;
72517;SDS011;60540;51.178;6.738;2022-11-15T05:43:21;7.13;;;4.13;;
72517;SDS011;60540;51.178;6.738;2022-11-15T05:45:46;8.20;;;4.25;;
72517;SDS011;60540;51.178;6.738;2022-11-15T05:48:12;8.52;;;4.05;;
72517;SDS011;60540;51.178;6.738;2022-11-15T05:50:38;8.00;;;4.30;;
72517;SDS011;60540;51.178;6.738;2022-11-15T05:53:07;8.23;;;3.88;;
72517;SDS011;60540;51.178;6.738;2022-11-15T05:55:32;6.97;;;3.97;;
72517;SDS011;60540;51.178;6.738;2022-11-15T05:57:59;8.30;;;4.30;;
72517;SDS011;60540;51.178;6.738;2022-11-15T06:00:25;6.05;;;3.75;;
72517;SDS011;60540;51.178;6.738;2022-11-15T06:02:51;7.57;;;4.22;;
72517;SDS011;60540;51.178;6.738;2022-11-15T06:05:16;7.13;;;3.85;;
72517;SDS011;60540;51.178;6.738;2022-11-15T06:07:42;7.97;;;4.28;;
72517;SDS011;60540;51.178;6.738;2022-11-15T06:10:09;8.00;;;4.32;;
72517;SDS011;60540;51.178;6.738;2022-11-15T06:12:35;7.25;;;4.30;;
72517;SDS011;60540;51.178;6.738;2022-11-15T06:15:00;8.80;;;4.22;;
72517;SDS011;60540;51.178;6.738;2022-11-15T06:17:26;6.03;;;3.85;;
72517;SDS011;60540;51.178;6.738;2022-11-15T06:19:51;6.80;;;3.85;;
72517;SDS011;60540;51.178;6.738;2022-11-15T06:22:17;8.00;;;3.80;;
72517;SDS011;60540;51.178;6.738;2022-11-15T06:24:42;7.85;;;4.03;;
72517;SDS011;60540;51.178;6.738;2022-11-15T06:27:10;9.10;;;4.10;;
72517;SDS011;60540;51.178;6.738;2022-11-15T06:29:36;5.90;;;3.28;;
72517;SDS011;60540;51.178;6.738;2022-11-15T06:32:02;6.88;;;3.42;;
72517;SDS011;60540;51.178;6.738;2022-11-15T06:34:27;6.18;;;3.30;;
72517;SDS011;60540;51.178;6.738;2022-11-15T06:36:53;6.07;;;3.38;;
72517;SDS011;60540;51.178;6.738;2022-11-15T06:39:18;6.15;;;3.30;;
72517;SDS011;60540;51.178;6.738;2022-11-15T06:41:44;7.13;;;3.38;;
72517;SDS011;60540;51.178;6.738;2022-11-15T06:44:10;6.40;;;3.83;;
72517;SDS011;60540;51.178;6.738;2022-11-15T06:46:35;6.57;;;3.38;;
72517;SDS011;60540;51.178;6.738;2022-11-15T06:49:01;6.10;;;3.15;;
72517;SDS011;60540;51.178;6.738;2022-11-15T06:51:26;6.78;;;3.33;;
72517;SDS011;60540;51.178;6.738;2022-11-15T06:53:52;5.70;;;2.83;;
72517;SDS011;60540;51.178;6.738;2022-11-15T06:56:18;4.70;;;2.63;;
72517;SDS011;60540;51.178;6.738;2022-11-15T06:58:43;5.15;;;2.78;;
72517;SDS011;60540;51.178;6.738;2022-11-15T07:01:10;5.43;;;2.83;;
72517;SDS011;60540;51.178;6.738;2022-11-15T07:06:03;5.45;;;2.38;;
72517;SDS011;60540;51.178;6.738;2022-11-15T07:08:29;5.72;;;2.50;;
72517;SDS011;60540;51.178;6.738;2022-11-15T07:10:58;5.38;;;2.90;;
72517;SDS011;60540;51.178;6.738;2022-11-15T07:13:25;6.05;;;3.38;;
72517;SDS011;60540;51.178;6.738;2022-11-15T07:15:52;5.70;;;2.88;;
72517;SDS011;60540;51.178;6.738;2022-11-15T07:18:17;6.60;;;3.10;;
72517;SDS011;60540;51.178;6.738;2022-11-15T07:20:43;4.97;;;2.83;;
72517;SDS011;60540;51.178;6.738;2022-11-15T07:23:09;6.50;;;3.50;;
72517;SDS011;60540;51.178;6.738;2022-11-15T07:25:34;5.32;;;2.83;;
72517;SDS011;60540;51.178;6.738;2022-11-15T07:28:00;5.70;;;3.15;;
72517;SDS011;60540;51.178;6.738;2022-11-15T07:30:26;5.95;;;2.80;;
72517;SDS011;60540;51.178;6.738;2022-11-15T07:32:53;5.65;;;2.60;;
72517;SDS011;60540;51.178;6.738;2022-11-15T07:35:19;4.93;;;2.97;;
72517;SDS011;60540;51.178;6.738;2022-11-15T07:37:52;4.97;;;2.58;;
72517;SDS011;60540;51.178;6.738;2022-11-15T07:40:25;5.10;;;2.50;;
72517;SDS011;60540;51.178;6.738;2022-11-15T07:42:52;4.38;;;2.20;;
72517;SDS011;60540;51.178;6.738;2022-11-15T07:45:18;4.38;;;2.28;;
72517;SDS011;60540;51.178;6.738;2022-11-15T07:47:48;4.30;;;2.30;;
72517;SDS011;60540;51.178;6.738;2022-11-15T07:50:15;4.07;;;2.30;;
72517;SDS011;60540;51.178;6.738;2022-11-15T07:52:41;4.15;;;1.98;;
72517;SDS011;60540;51.178;6.738;2022-11-15T07:55:07;4.65;;;2.55;;
72517;SDS011;60540;51.178;6.738;2022-11-15T07:57:32;7.60;;;2.25;;
72517;SDS011;60540;51.178;6.738;2022-11-15T07:59:58;4.45;;;1.95;;
72517;SDS011;60540;51.178;6.738;2022-11-15T08:02:24;4.20;;;2.33;;
72517;SDS011;60540;51.178;6.738;2022-11-15T08:04:49;3.80;;;1.67;;
72517;SDS011;60540;51.178;6.738;2022-11-15T08:07:15;4.20;;;1.90;;
72517;SDS011;60540;51.178;6.738;2022-11-15T08:09:40;4.13;;;1.88;;
72517;SDS011;60540;51.178;6.738;2022-11-15T08:12:06;3.47;;;1.75;;
72517;SDS011;60540;51.178;6.738;2022-11-15T08:14:32;3.60;;;1.90;;
72517;SDS011;60540;51.178;6.738;2022-11-15T08:16:57;5.10;;;2.42;;
72517;SDS011;60540;51.178;6.738;2022-11-15T08:19:23;5.43;;;2.38;;
72517;SDS011;60540;51.178;6.738;2022-11-15T08:21:49;4.57;;;2.08;;
72517;SDS011;60540;51.178;6.738;2022-11-15T08:24:14;5.50;;;2.05;;
72517;SDS011;60540;51.178;6.738;2022-11-15T08:26:40;4.43;;;2.05;;
72517;SDS011;60540;51.178;6.738;2022-11-15T08:29:06;4.35;;;1.80;;
72517;SDS011;60540;51.178;6.738;2022-11-15T08:31:34;4.45;;;2.10;;
72517;SDS011;60540;51.178;6.738;2022-11-15T08:34:02;3.78;;;1.80;;
72517;SDS011;60540;51.178;6.738;2022-11-15T08:36:30;5.57;;;2.40;;
72517;SDS011;60540;51.178;6.738;2022-11-15T08:38:57;5.38;;;2.30;;
72517;SDS011;60540;51.178;6.738;2022-11-15T08:41:27;4.22;;;2.05;;
72517;SDS011;60540;51.178;6.738;2022-11-15T08:43:55;4.20;;;1.90;;
72517;SDS011;60540;51.178;6.738;2022-11-15T08:46:21;5.25;;;2.20;;
72517;SDS011;60540;51.178;6.738;2022-11-15T08:48:47;5.85;;;2.17;;
72517;SDS011;60540;51.178;6.738;2022-11-15T08:51:12;4.75;;;1.80;;
72517;SDS011;60540;51.178;6.738;2022-11-15T08:53:38;4.82;;;1.70;;
72517;SDS011;60540;51.178;6.738;2022-11-15T08:56:06;3.03;;;1.63;;
72517;SDS011;60540;51.178;6.738;2022-11-15T08:58:34;12.35;;;2.20;;
72517;SDS011;60540;51.178;6.738;2022-11-15T09:01:00;5.32;;;2.30;;
72517;SDS011;60540;51.178;6.738;2022-11-15T09:03:26;4.13;;;1.42;;
72517;SDS011;60540;51.178;6.738;2022-11-15T09:05:58;7.45;;;1.67;;
72517;SDS011;60540;51.178;6.738;2022-11-15T09:08:25;3.25;;;1.77;;
72517;SDS011;60540;51.178;6.738;2022-11-15T09:10:54;6.45;;;1.90;;
72517;SDS011;60540;51.178;6.738;2022-11-15T09:13:20;4.15;;;1.88;;
72517;SDS011;60540;51.178;6.738;2022-11-15T09:15:45;3.95;;;1.77;;
72517;SDS011;60540;51.178;6.738;2022-11-15T09:18:11;3.35;;;1.48;;
72517;SDS011;60540;51.178;6.738;2022-11-15T09:20:37;3.55;;;1.67;;
72517;SDS011;60540;51.178;6.738;2022-11-15T09:23:03;4.03;;;1.70;;
72517;SDS011;60540;51.178;6.738;2022-11-15T09:25:29;3.05;;;1.63;;
72517;SDS011;60540;51.178;6.738;2022-11-15T09:27:55;4.35;;;1.30;;
72517;SDS011;60540;51.178;6.738;2022-11-15T09:30:22;2.30;;;1.33;;
72517;SDS011;60540;51.178;6.738;2022-11-15T09:32:48;3.67;;;1.40;;
72517;SDS011;60540;51.178;6.738;2022-11-15T09:35:14;2.75;;;1.30;;
72517;SDS011;60540;51.178;6.738;2022-11-15T09:37:40;3.85;;;1.50;;
72517;SDS011;60540;51.178;6.738;2022-11-15T09:40:06;2.85;;;1.20;;
72517;SDS011;60540;51.178;6.738;2022-11-15T09:42:46;3.47;;;1.50;;
72517;SDS011;60540;51.178;6.738;2022-11-15T09:45:29;3.58;;;1.33;;
72517;SDS011;60540;51.178;6.738;2022-11-15T09:50:35;3.20;;;1.17;;
72517;SDS011;60540;51.178;6.738;2022-11-15T09:53:04;2.83;;;1.20;;
72517;SDS011;60540;51.178;6.738;2022-11-15T09:55:51;3.35;;;1.00;;
72517;SDS011;60540;51.178;6.738;2022-11-15T09:58:28;8.45;;;1.38;;
72517;SDS011;60540;51.178;6.738;2022-11-15T10:00:55;2.83;;;0.98;;
72517;SDS011;60540;51.178;6.738;2022-11-15T10:03:26;3.40;;;1.30;;
72517;SDS011;60540;51.178;6.738;2022-11-15T10:05:53;4.82;;;1.10;;
72517;SDS011;60540;51.178;6.738;2022-11-15T10:08:49;4.13;;;1.10;;
72517;SDS011;60540;51.178;6.738;2022-11-15T10:11:23;3.33;;;1.42;;
72517;SDS011;60540;51.178;6.738;2022-11-15T10:13:51;2.63;;;1.10;;
72517;SDS011;60540;51.178;6.738;2022-11-15T10:21:58;2.35;;;1.02;;
72517;SDS011;60540;51.178;6.738;2022-11-15T10:24:37;2.40;;;1.17;;
72517;SDS011;60540;51.178;6.738;2022-11-15T10:27:13;3.38;;;1.20;;
72517;SDS011;60540;51.178;6.738;2022-11-15T10:29:44;4.53;;;1.50;;
72517;SDS011;60540;51.178;6.738;2022-11-15T10:32:11;2.25;;;1.00;;
72517;SDS011;60540;51.178;6.738;2022-11-15T10:34:38;4.18;;;1.20;;
72517;SDS011;60540;51.178;6.738;2022-11-15T10:37:04;3.13;;;0.98;;
72517;SDS011;60540;51.178;6.738;2022-11-15T10:39:29;2.65;;;1.02;;
72517;SDS011;60540;51.178;6.738;2022-11-15T10:41:55;2.80;;;1.05;;
72517;SDS011;60540;51.178;6.738;2022-11-15T10:44:23;4.38;;;1.48;;
72517;SDS011;60540;51.178;6.738;2022-11-15T10:49:21;2.22;;;1.27;;
72517;SDS011;60540;51.178;6.738;2022-11-15T10:51:54;2.35;;;0.90;;
72517;SDS011;60540;51.178;6.738;2022-11-15T10:57:24;2.65;;;0.77;;
72517;SDS011;60540;51.178;6.738;2022-11-15T11:00:13;2.47;;;0.80;;
72517;SDS011;60540;51.178;6.738;2022-11-15T11:05:33;2.17;;;0.80;;
72517;SDS011;60540;51.178;6.738;2022-11-15T11:08:24;3.03;;;0.80;;
72517;SDS011;60540;51.178;6.738;2022-11-15T11:10:56;2.15;;;0.88;;
72517;SDS011;60540;51.178;6.738;2022-11-15T11:13:26;1.65;;;0.70;;
72517;SDS011;60540;51.178;6.738;2022-11-15T11:16:00;1.17;;;0.60;;
72517;SDS011;60540;51.178;6.738;2022-11-15T11:18:34;3.17;;;0.70;;
72517;SDS011;60540;51.178;6.738;2022-11-15T11:21:10;2.05;;;0.70;;
72517;SDS011;60540;51.178;6.738;2022-11-15T11:23:58;4.05;;;0.93;;
72517;SDS011;60540;51.178;6.738;2022-11-15T11:32:02;1.60;;;0.60;;
72517;SDS011;60540;51.178;6.738;2022-11-15T11:34:58;0.98;;;0.65;;
72517;SDS011;60540;51.178;6.738;2022-11-15T11:40:13;2.80;;;0.70;;
72517;SDS011;60540;51.178;6.738;2022-11-15T11:42:54;2.20;;;0.60;;
72517;SDS011;60540;51.178;6.738;2022-11-15T11:45:28;2.55;;;0.70;;
72517;SDS011;60540;51.178;6.738;2022-11-15T11:47:58;3.40;;;0.63;;
72517;SDS011;60540;51.178;6.738;2022-11-15T11:50:33;1.77;;;0.75;;
72517;SDS011;60540;51.178;6.738;2022-11-15T11:55:50;2.40;;;0.65;;
72517;SDS011;60540;51.178;6.738;2022-11-15T11:58:23;2.33;;;0.82;;
72517;SDS011;60540;51.178;6.738;2022-11-15T12:01:04;2.55;;;0.63;;
72517;SDS011;60540;51.178;6.738;2022-11-15T12:03:47;4.13;;;0.80;;
72517;SDS011;60540;51.178;6.738;2022-11-15T12:09:21;2.50;;;0.50;;
72517;SDS011;60540;51.178;6.738;2022-11-15T12:12:13;2.70;;;0.70;;
72517;SDS011;60540;51.178;6.738;2022-11-15T12:14:48;1.25;;;0.55;;
72517;SDS011;60540;51.178;6.738;2022-11-15T12:17:16;3.97;;;0.68;;
72517;SDS011;60540;51.178;6.738;2022-11-15T12:19:44;3.40;;;0.75;;
72517;SDS011;60540;51.178;6.738;2022-11-15T12:22:19;1.08;;;0.60;;
72517;SDS011;60540;51.178;6.738;2022-11-15T12:27:33;1.55;;;0.52;;
72517;SDS011;60540;51.178;6.738;2022-11-15T12:30:04;2.30;;;0.75;;
72517;SDS011;60540;51.178;6.738;2022-11-15T12:32:35;2.08;;;1.08;;
72517;SDS011;60540;51.178;6.738;2022-11-15T12:35:03;3.03;;;1.02;;
72517;SDS011;60540;51.178;6.738;2022-11-15T12:37:46;2.88;;;0.70;;
72517;SDS011;60540;51.178;6.738;2022-11-15T12:43:03;5.78;;;0.88;;
72517;SDS011;60540;51.178;6.738;2022-11-15T12:45:36;2.75;;;0.80;;
72517;SDS011;60540;51.178;6.738;2022-11-15T13:04:21;4.55;;;1.00;;
72517;SDS011;60540;51.178;6.738;2022-11-15T13:06:50;2.13;;;0.63;;
72517;SDS011;60540;51.178;6.738;2022-11-15T13:12:01;3.65;;;0.90;;
72517;SDS011;60540;51.178;6.738;2022-11-15T13:19:47;4.13;;;1.17;;
72517;SDS011;60540;51.178;6.738;2022-11-15T13:22:38;3.17;;;1.02;;
72517;SDS011;60540;51.178;6.738;2022-11-15T13:25:18;4.55;;;1.27;;
72517;SDS011;60540;51.178;6.738;2022-11-15T13:27:47;2.10;;;0.70;;
72517;SDS011;60540;51.178;6.738;2022-11-15T13:30:27;3.55;;;0.80;;
72517;SDS011;60540;51.178;6.738;2022-11-15T13:32:55;3.35;;;0.70;;
72517;SDS011;60540;51.178;6.738;2022-11-15T13:35:25;1.48;;;0.65;;
72517;SDS011;60540;51.178;6.738;2022-11-15T13:37:52;2.38;;;1.00;;
72517;SDS011;60540;51.178;6.738;2022-11-15T13:40:20;3.33;;;0.80;;
72517;SDS011;60540;51.178;6.738;2022-11-15T13:42:49;3.30;;;0.85;;
72517;SDS011;60540;51.178;6.738;2022-11-15T13:45:18;2.92;;;0.88;;
72517;SDS011;60540;51.178;6.738;2022-11-15T13:47:44;2.55;;;0.70;;
72517;SDS011;60540;51.178;6.738;2022-11-15T13:50:16;2.90;;;0.75;;
72517;SDS011;60540;51.178;6.738;2022-11-15T13:52:42;1.45;;;0.65;;
72517;SDS011;60540;51.178;6.738;2022-11-15T13:55:14;2.60;;;0.90;;
72517;SDS011;60540;51.178;6.738;2022-11-15T13:57:51;3.78;;;1.30;;
72517;SDS011;60540;51.178;6.738;2022-11-15T14:03:27;3.92;;;1.02;;
72517;SDS011;60540;51.178;6.738;2022-11-15T14:08:38;3.50;;;1.45;;
72517;SDS011;60540;51.178;6.738;2022-11-15T14:11:18;2.85;;;1.10;;
72517;SDS011;60540;51.178;6.738;2022-11-15T14:16:41;3.10;;;1.45;;
72517;SDS011;60540;51.178;6.738;2022-11-15T14:19:12;4.43;;;1.55;;
72517;SDS011;60540;51.178;6.738;2022-11-15T14:22:08;3.53;;;1.10;;
72517;SDS011;60540;51.178;6.738;2022-11-15T14:24:35;3.70;;;1.40;;
72517;SDS011;60540;51.178;6.738;2022-11-15T14:27:20;4.57;;;1.40;;
72517;SDS011;60540;51.178;6.738;2022-11-15T14:29:48;4.65;;;1.50;;
72517;SDS011;60540;51.178;6.738;2022-11-15T14:32:23;7.28;;;2.10;;
72517;SDS011;60540;51.178;6.738;2022-11-15T14:34:55;4.32;;;2.10;;
72517;SDS011;60540;51.178;6.738;2022-11-15T14:39:51;5.05;;;1.70;;
72517;SDS011;60540;51.178;6.738;2022-11-15T14:42:18;4.75;;;2.17;;
72517;SDS011;60540;51.178;6.738;2022-11-15T14:44:44;4.97;;;1.80;;
72517;SDS011;60540;51.178;6.738;2022-11-15T14:47:09;4.80;;;2.38;;
72517;SDS011;60540;51.178;6.738;2022-11-15T14:49:35;5.57;;;2.10;;
72517;SDS011;60540;51.178;6.738;2022-11-15T14:52:01;6.05;;;2.70;;
72517;SDS011;60540;51.178;6.738;2022-11-15T14:54:26;5.35;;;1.70;;
72517;SDS011;60540;51.178;6.738;2022-11-15T14:56:52;4.75;;;2.05;;
72517;SDS011;60540;51.178;6.738;2022-11-15T14:59:18;4.88;;;2.30;;
72517;SDS011;60540;51.178;6.738;2022-11-15T15:01:43;5.72;;;1.90;;
72517;SDS011;60540;51.178;6.738;2022-11-15T15:04:10;6.78;;;2.72;;
72517;SDS011;60540;51.178;6.738;2022-11-15T15:06:35;4.43;;;2.15;;
72517;SDS011;60540;51.178;6.738;2022-11-15T15:09:01;4.40;;;1.83;;
72517;SDS011;60540;51.178;6.738;2022-11-15T15:11:27;5.97;;;2.20;;
72517;SDS011;60540;51.178;6.738;2022-11-15T15:13:55;5.53;;;2.17;;
72517;SDS011;60540;51.178;6.738;2022-11-15T15:16:22;4.85;;;1.60;;
72517;SDS011;60540;51.178;6.738;2022-11-15T15:18:49;4.15;;;1.65;;
72517;SDS011;60540;51.178;6.738;2022-11-15T15:21:20;5.53;;;2.30;;
72517;SDS011;60540;51.178;6.738;2022-11-15T15:23:48;3.70;;;1.77;;
72517;SDS011;60540;51.178;6.738;2022-11-15T15:26:14;2.60;;;1.40;;
72517;SDS011;60540;51.178;6.738;2022-11-15T15:28:39;4.32;;;1.50;;
72517;SDS011;60540;51.178;6.738;2022-11-15T15:31:05;5.35;;;1.58;;
72517;SDS011;60540;51.178;6.738;2022-11-15T15:33:31;3.13;;;1.48;;
72517;SDS011;60540;51.178;6.738;2022-11-15T15:35:57;2.95;;;1.38;;
72517;SDS011;60540;51.178;6.738;2022-11-15T15:38:23;3.47;;;1.42;;
72517;SDS011;60540;51.178;6.738;2022-11-15T15:40:48;4.60;;;1.50;;
72517;SDS011;60540;51.178;6.738;2022-11-15T15:43:14;4.35;;;1.60;;
72517;SDS011;60540;51.178;6.738;2022-11-15T15:45:40;5.25;;;1.50;;
72517;SDS011;60540;51.178;6.738;2022-11-15T15:48:13;3.47;;;1.58;;
72517;SDS011;60540;51.178;6.738;2022-11-15T15:53:05;3.63;;;1.50;;
72517;SDS011;60540;51.178;6.738;2022-11-15T15:55:31;5.03;;;2.10;;
72517;SDS011;60540;51.178;6.738;2022-11-15T15:57:56;3.78;;;1.70;;
72517;SDS011;60540;51.178;6.738;2022-11-15T16:00:22;5.32;;;1.88;;
72517;SDS011;60540;51.178;6.738;2022-11-15T16:02:50;5.38;;;1.73;;
72517;SDS011;60540;51.178;6.738;2022-11-15T16:05:16;5.50;;;1.80;;
72517;SDS011;60540;51.178;6.738;2022-11-15T16:07:43;4.65;;;1.90;;
72517;SDS011;60540;51.178;6.738;2022-11-15T16:10:24;6.38;;;2.60;;
72517;SDS011;60540;51.178;6.738;2022-11-15T16:12:51;4.50;;;1.60;;
72517;SDS011;60540;51.178;6.738;2022-11-15T16:15:18;4.40;;;1.95;;
72517;SDS011;60540;51.178;6.738;2022-11-15T16:17:47;3.72;;;1.55;;
72517;SDS011;60540;51.178;6.738;2022-11-15T16:23:00;3.72;;;1.73;;
72517;SDS011;60540;51.178;6.738;2022-11-15T16:25:26;3.17;;;1.60;;
72517;SDS011;60540;51.178;6.738;2022-11-15T16:27:52;4.50;;;1.83;;
72517;SDS011;60540;51.178;6.738;2022-11-15T16:30:19;3.15;;;1.63;;
72517;SDS011;60540;51.178;6.738;2022-11-15T16:32:46;7.65;;;1.90;;
72517;SDS011;60540;51.178;6.738;2022-11-15T16:35:12;3.60;;;1.52;;
72517;SDS011;60540;51.178;6.738;2022-11-15T16:37:38;4.55;;;1.85;;
72517;SDS011;60540;51.178;6.738;2022-11-15T16:40:26;5.18;;;1.60;;
72517;SDS011;60540;51.178;6.738;2022-11-15T16:42:56;4.15;;;1.70;;
72517;SDS011;60540;51.178;6.738;2022-11-15T16:45:22;3.83;;;1.70;;
72517;SDS011;60540;51.178;6.738;2022-11-15T16:47:48;4.00;;;1.63;;